sensor_id;sensor_type;location;lat;lon;timestamp;pressure;altitude;pressure_sealevel;temperature
15709;BMP180;7954;51.914;8.420;2023-03-01T00:01:46;101805.88;;;6.74
15709;BMP180;7954;51.914;8.420;2023-03-01T00:04:15;101804.91;;;6.74
15709;BMP180;7954;51.914;8.420;2023-03-01T00:06:43;101810.59;;;6.69
15709;BMP180;7954;51.914;8.420;2023-03-01T00:09:12;101810.59;;;6.69
15709;BMP180;7954;51.914;8.420;2023-03-01T00:11:42;101808.69;;;6.68
15709;BMP180;7954;51.914;8.420;2023-03-01T00:14:11;101804.97;;;6.66
15709;BMP180;7954;51.914;8.420;2023-03-01T00:16:40;101809.34;;;6.63
15709;BMP180;7954;51.914;8.420;2023-03-01T00:19:09;101809.69;;;6.60
15709;BMP180;7954;51.914;8.420;2023-03-01T00:21:39;101809.06;;;6.57
15709;BMP180;7954;51.914;8.420;2023-03-01T00:24:08;101808.78;;;6.52
15709;BMP180;7954;51.914;8.420;2023-03-01T00:26:37;101803.75;;;6.48
15709;BMP180;7954;51.914;8.420;2023-03-01T00:29:07;101802.84;;;6.43
15709;BMP180;7954;51.914;8.420;2023-03-01T00:31:35;101805.06;;;6.42
15709;BMP180;7954;51.914;8.420;2023-03-01T00:34:04;101804.44;;;6.39
15709;BMP180;7954;51.914;8.420;2023-03-01T00:36:34;101803.81;;;6.36
15709;BMP180;7954;51.914;8.420;2023-03-01T00:39:05;101804.78;;;6.33
15709;BMP180;7954;51.914;8.420;2023-03-01T00:41:33;101803.50;;;6.31
15709;BMP180;7954;51.914;8.420;2023-03-01T00:44:01;101808.22;;;6.29
15709;BMP180;7954;51.914;8.420;2023-03-01T00:46:31;101806.03;;;6.27
15709;BMP180;7954;51.914;8.420;2023-03-01T00:49:00;101796.94;;;6.23
15709;BMP180;7954;51.914;8.420;2023-03-01T00:51:31;101798.84;;;6.20
15709;BMP180;7954;51.914;8.420;2023-03-01T00:54:01;101802.00;;;6.15
15709;BMP180;7954;51.914;8.420;2023-03-01T00:56:30;101798.53;;;6.11
15709;BMP180;7954;51.914;8.420;2023-03-01T00:58:59;101805.75;;;6.09
15709;BMP180;7954;51.914;8.420;2023-03-01T01:01:29;101797.94;;;6.08
15709;BMP180;7954;51.914;8.420;2023-03-01T01:04:00;101800.75;;;6.05
15709;BMP180;7954;51.914;8.420;2023-03-01T01:06:29;101796.97;;;6.03
15709;BMP180;7954;51.914;8.420;2023-03-01T01:08:59;101794.78;;;6.01
15709;BMP180;7954;51.914;8.420;2023-03-01T01:11:28;101789.78;;;5.97
15709;BMP180;7954;51.914;8.420;2023-03-01T01:13:57;101796.09;;;5.95
15709;BMP180;7954;51.914;8.420;2023-03-01T01:16:27;101799.22;;;5.94
15709;BMP180;7954;51.914;8.420;2023-03-01T01:18:55;101781.69;;;5.90
15709;BMP180;7954;51.914;8.420;2023-03-01T01:21:25;101784.81;;;5.89
15709;BMP180;7954;51.914;8.420;2023-03-01T01:23:57;101782.00;;;5.87
15709;BMP180;7954;51.914;8.420;2023-03-01T01:26:26;101787.00;;;5.87
15709;BMP180;7954;51.914;8.420;2023-03-01T01:28:55;101776.03;;;5.87
15709;BMP180;7954;51.914;8.420;2023-03-01T01:31:25;101776.03;;;5.87
15709;BMP180;7954;51.914;8.420;2023-03-01T01:33:55;101768.81;;;5.84
15709;BMP180;7954;51.914;8.420;2023-03-01T01:36:24;101761.63;;;5.82
15709;BMP180;7954;51.914;8.420;2023-03-01T01:38:52;101767.25;;;5.81
15709;BMP180;7954;51.914;8.420;2023-03-01T01:41:23;101769.75;;;5.81
15709;BMP180;7954;51.914;8.420;2023-03-01T01:44:11;101763.84;;;5.80
15709;BMP180;7954;51.914;8.420;2023-03-01T01:46:41;101758.81;;;5.80
15709;BMP180;7954;51.914;8.420;2023-03-01T01:49:19;101753.19;;;5.77
15709;BMP180;7954;51.914;8.420;2023-03-01T01:51:51;101753.81;;;5.76
15709;BMP180;7954;51.914;8.420;2023-03-01T01:54:27;101748.78;;;5.72
15709;BMP180;7954;51.914;8.420;2023-03-01T01:56:59;101753.13;;;5.73
15709;BMP180;7954;51.914;8.420;2023-03-01T01:59:28;101748.13;;;5.70
15709;BMP180;7954;51.914;8.420;2023-03-01T02:01:59;101740.94;;;5.67
15709;BMP180;7954;51.914;8.420;2023-03-01T02:04:29;101740.97;;;5.63
15709;BMP180;7954;51.914;8.420;2023-03-01T02:07:03;101743.75;;;5.65
15709;BMP180;7954;51.914;8.420;2023-03-01T02:09:34;101744.41;;;5.60
15709;BMP180;7954;51.914;8.420;2023-03-01T02:12:03;101748.78;;;5.57
15709;BMP180;7954;51.914;8.420;2023-03-01T02:14:34;101753.81;;;5.57
15709;BMP180;7954;51.914;8.420;2023-03-01T02:17:03;101741.28;;;5.53
15709;BMP180;7954;51.914;8.420;2023-03-01T02:19:41;101744.09;;;5.50
15709;BMP180;7954;51.914;8.420;2023-03-01T02:22:20;101737.53;;;5.51
15709;BMP180;7954;51.914;8.420;2023-03-01T02:24:59;101738.78;;;5.45
15709;BMP180;7954;51.914;8.420;2023-03-01T02:27:37;101737.19;;;5.41
15709;BMP180;7954;51.914;8.420;2023-03-01T02:30:09;101740.97;;;5.39
15709;BMP180;7954;51.914;8.420;2023-03-01T02:32:39;101741.28;;;5.33
15709;BMP180;7954;51.914;8.420;2023-03-01T02:35:09;101751.28;;;5.25
15709;BMP180;7954;51.914;8.420;2023-03-01T02:37:39;101738.47;;;5.23
15709;BMP180;7954;51.914;8.420;2023-03-01T02:40:11;101750.97;;;5.23
15709;BMP180;7954;51.914;8.420;2023-03-01T02:42:47;101736.56;;;5.22
15709;BMP180;7954;51.914;8.420;2023-03-01T02:45:17;101748.16;;;5.22
15709;BMP180;7954;51.914;8.420;2023-03-01T02:47:45;101744.72;;;5.17
15709;BMP180;7954;51.914;8.420;2023-03-01T02:50:24;101748.78;;;5.17
15709;BMP180;7954;51.914;8.420;2023-03-01T02:52:57;101739.41;;;5.16
15709;BMP180;7954;51.914;8.420;2023-03-01T02:55:28;101732.50;;;5.15
15709;BMP180;7954;51.914;8.420;2023-03-01T02:57:56;101735.97;;;5.15
15709;BMP180;7954;51.914;8.420;2023-03-01T03:00:30;101731.28;;;5.13
15709;BMP180;7954;51.914;8.420;2023-03-01T03:02:59;101734.09;;;5.10
15709;BMP180;7954;51.914;8.420;2023-03-01T03:05:29;101730.94;;;5.07
15709;BMP180;7954;51.914;8.420;2023-03-01T03:07:57;101729.34;;;5.04
15709;BMP180;7954;51.914;8.420;2023-03-01T03:10:27;101727.81;;;5.05
15709;BMP180;7954;51.914;8.420;2023-03-01T03:12:57;101716.84;;;5.04
15709;BMP180;7954;51.914;8.420;2023-03-01T03:15:27;101720.63;;;5.02
15709;BMP180;7954;51.914;8.420;2023-03-01T03:17:57;101713.72;;;5.01
15709;BMP180;7954;51.914;8.420;2023-03-01T03:20:26;101708.06;;;4.98
15709;BMP180;7954;51.914;8.420;2023-03-01T03:22:56;101704.03;;;4.95
15709;BMP180;7954;51.914;8.420;2023-03-01T03:25:27;101707.47;;;4.91
15709;BMP180;7954;51.914;8.420;2023-03-01T03:27:56;101708.09;;;4.90
15709;BMP180;7954;51.914;8.420;2023-03-01T03:30:27;101698.38;;;4.88
15709;BMP180;7954;51.914;8.420;2023-03-01T03:32:56;101709.31;;;4.88
15709;BMP180;7954;51.914;8.420;2023-03-01T03:35:26;101700.56;;;4.86
15709;BMP180;7954;51.914;8.420;2023-03-01T03:37:57;101707.13;;;4.86
15709;BMP180;7954;51.914;8.420;2023-03-01T03:40:34;101694.63;;;4.82
15709;BMP180;7954;51.914;8.420;2023-03-01T03:43:05;101703.06;;;4.82
15709;BMP180;7954;51.914;8.420;2023-03-01T03:45:35;101691.50;;;4.83
15709;BMP180;7954;51.914;8.420;2023-03-01T03:48:06;101689.91;;;4.83
15709;BMP180;7954;51.914;8.420;2023-03-01T03:50:34;101688.06;;;4.82
15709;BMP180;7954;51.914;8.420;2023-03-01T03:53:04;101687.13;;;4.82
15709;BMP180;7954;51.914;8.420;2023-03-01T03:55:33;101685.56;;;4.82
15709;BMP180;7954;51.914;8.420;2023-03-01T03:58:02;101684.00;;;4.79
15709;BMP180;7954;51.914;8.420;2023-03-01T04:00:36;101685.88;;;4.80
15709;BMP180;7954;51.914;8.420;2023-03-01T04:03:04;101682.41;;;4.79
15709;BMP180;7954;51.914;8.420;2023-03-01T04:05:32;101686.19;;;4.77
15709;BMP180;7954;51.914;8.420;2023-03-01T04:08:00;101687.13;;;4.78
15709;BMP180;7954;51.914;8.420;2023-03-01T04:10:36;101678.66;;;4.73
15709;BMP180;7954;51.914;8.420;2023-03-01T04:13:05;101674.59;;;4.74
15709;BMP180;7954;51.914;8.420;2023-03-01T04:15:35;101685.22;;;4.73
15709;BMP180;7954;51.914;8.420;2023-03-01T04:18:03;101679.00;;;4.75
15709;BMP180;7954;51.914;8.420;2023-03-01T04:20:33;101693.03;;;4.74
15709;BMP180;7954;51.914;8.420;2023-03-01T04:23:03;101693.03;;;4.74
15709;BMP180;7954;51.914;8.420;2023-03-01T04:25:39;101687.13;;;4.74
15709;BMP180;7954;51.914;8.420;2023-03-01T04:28:08;101695.22;;;4.73
15709;BMP180;7954;51.914;8.420;2023-03-01T04:30:38;101686.16;;;4.73
15709;BMP180;7954;51.914;8.420;2023-03-01T04:33:08;101691.50;;;4.75
15709;BMP180;7954;51.914;8.420;2023-03-01T04:35:36;101688.03;;;4.74
15709;BMP180;7954;51.914;8.420;2023-03-01T04:38:05;101696.16;;;4.73
15709;BMP180;7954;51.914;8.420;2023-03-01T04:40:33;101690.22;;;4.73
15709;BMP180;7954;51.914;8.420;2023-03-01T04:43:03;101684.31;;;4.72
15709;BMP180;7954;51.914;8.420;2023-03-01T04:45:32;101685.84;;;4.76
15709;BMP180;7954;51.914;8.420;2023-03-01T04:48:02;101688.03;;;4.74
15709;BMP180;7954;51.914;8.420;2023-03-01T04:50:31;101694.63;;;4.74
15709;BMP180;7954;51.914;8.420;2023-03-01T04:52:59;101689.63;;;4.74
15709;BMP180;7954;51.914;8.420;2023-03-01T04:55:28;101689.31;;;4.72
15709;BMP180;7954;51.914;8.420;2023-03-01T04:57:56;101687.13;;;4.74
15709;BMP180;7954;51.914;8.420;2023-03-01T05:00:24;101674.31;;;4.72
15709;BMP180;7954;51.914;8.420;2023-03-01T05:02:54;101674.25;;;4.68
15709;BMP180;7954;51.914;8.420;2023-03-01T05:05:26;101681.47;;;4.67
15709;BMP180;7954;51.914;8.420;2023-03-01T05:07:55;101669.88;;;4.63
15709;BMP180;7954;51.914;8.420;2023-03-01T05:10:26;101670.53;;;4.62
15709;BMP180;7954;51.914;8.420;2023-03-01T05:12:56;101677.38;;;4.63
15709;BMP180;7954;51.914;8.420;2023-03-01T05:15:25;101672.06;;;4.62
15709;BMP180;7954;51.914;8.420;2023-03-01T05:17:54;101675.19;;;4.61
15709;BMP180;7954;51.914;8.420;2023-03-01T05:20:29;101674.56;;;4.58
15709;BMP180;7954;51.914;8.420;2023-03-01T05:22:59;101676.09;;;4.53
15709;BMP180;7954;51.914;8.420;2023-03-01T05:25:34;101677.38;;;4.55
15709;BMP180;7954;51.914;8.420;2023-03-01T05:28:07;101673.59;;;4.53
15709;BMP180;7954;51.914;8.420;2023-03-01T05:30:37;101680.19;;;4.49
15709;BMP180;7954;51.914;8.420;2023-03-01T05:33:07;101676.72;;;4.48
15709;BMP180;7954;51.914;8.420;2023-03-01T05:35:41;101663.00;;;4.50
15709;BMP180;7954;51.914;8.420;2023-03-01T05:38:10;101667.06;;;4.50
15709;BMP180;7954;51.914;8.420;2023-03-01T05:40:41;101666.72;;;4.48
15709;BMP180;7954;51.914;8.420;2023-03-01T05:43:10;101667.38;;;4.47
15709;BMP180;7954;51.914;8.420;2023-03-01T05:45:39;101663.59;;;4.45
15709;BMP180;7954;51.914;8.420;2023-03-01T05:48:08;101658.91;;;4.43
15709;BMP180;7954;51.914;8.420;2023-03-01T05:50:37;101663.28;;;4.40
15709;BMP180;7954;51.914;8.420;2023-03-01T05:53:10;101671.72;;;4.41
15709;BMP180;7954;51.914;8.420;2023-03-01T05:55:39;101668.59;;;4.38
15709;BMP180;7954;51.914;8.420;2023-03-01T05:58:09;101671.41;;;4.39
15709;BMP180;7954;51.914;8.420;2023-03-01T06:00:37;101677.94;;;4.39
15709;BMP180;7954;51.914;8.420;2023-03-01T06:03:06;101666.72;;;4.37
15709;BMP180;7954;51.914;8.420;2023-03-01T06:05:34;101682.00;;;4.34
15709;BMP180;7954;51.914;8.420;2023-03-01T06:08:03;101681.72;;;4.33
15709;BMP180;7954;51.914;8.420;2023-03-01T06:10:32;101679.22;;;4.33
15709;BMP180;7954;51.914;8.420;2023-03-01T06:13:01;101683.25;;;4.32
15709;BMP180;7954;51.914;8.420;2023-03-01T06:15:29;101687.94;;;4.31
15709;BMP180;7954;51.914;8.420;2023-03-01T06:17:56;101689.19;;;4.33
15709;BMP180;7954;51.914;8.420;2023-03-01T06:20:28;101686.06;;;4.34
15709;BMP180;7954;51.914;8.420;2023-03-01T06:22:56;101695.13;;;4.33
15709;BMP180;7954;51.914;8.420;2023-03-01T06:25:26;101689.50;;;4.34
15709;BMP180;7954;51.914;8.420;2023-03-01T06:27:56;101695.75;;;4.36
15709;BMP180;7954;51.914;8.420;2023-03-01T06:30:27;101690.75;;;4.36
15709;BMP180;7954;51.914;8.420;2023-03-01T06:32:56;101694.22;;;4.41
15709;BMP180;7954;51.914;8.420;2023-03-01T06:35:27;101692.34;;;4.43
15709;BMP180;7954;51.914;8.420;2023-03-01T06:38:00;101685.19;;;4.49
15709;BMP180;7954;51.914;8.420;2023-03-01T06:40:29;101676.75;;;4.52
15709;BMP180;7954;51.914;8.420;2023-03-01T06:42:59;101686.75;;;4.56
15709;BMP180;7954;51.914;8.420;2023-03-01T06:45:27;101677.06;;;4.58
15709;BMP180;7954;51.914;8.420;2023-03-01T06:48:01;101679.56;;;4.62
15709;BMP180;7954;51.914;8.420;2023-03-01T06:50:31;101681.75;;;4.56
15709;BMP180;7954;51.914;8.420;2023-03-01T06:52:59;101669.25;;;4.56
15709;BMP180;7954;51.914;8.420;2023-03-01T06:55:27;101674.25;;;4.60
15709;BMP180;7954;51.914;8.420;2023-03-01T06:57:55;101674.88;;;4.63
15709;BMP180;7954;51.914;8.420;2023-03-01T07:00:27;101664.91;;;4.75
15709;BMP180;7954;51.914;8.420;2023-03-01T07:02:58;101677.88;;;4.11
15709;BMP180;7954;51.914;8.420;2023-03-01T07:05:27;101661.47;;;4.79
15709;BMP180;7954;51.914;8.420;2023-03-01T07:07:57;101664.31;;;5.20
15709;BMP180;7954;51.914;8.420;2023-03-01T07:10:26;101652.41;;;5.43
15709;BMP180;7954;51.914;8.420;2023-03-01T07:12:55;101647.97;;;5.62
15709;BMP180;7954;51.914;8.420;2023-03-01T07:15:26;101644.50;;;5.73
15709;BMP180;7954;51.914;8.420;2023-03-01T07:17:55;101647.34;;;5.82
15709;BMP180;7954;51.914;8.420;2023-03-01T07:20:24;101649.50;;;5.89
15709;BMP180;7954;51.914;8.420;2023-03-01T07:22:52;101646.03;;;5.92
15709;BMP180;7954;51.914;8.420;2023-03-01T07:25:20;101637.22;;;5.98
15709;BMP180;7954;51.914;8.420;2023-03-01T07:27:49;101635.31;;;6.05
15709;BMP180;7954;51.914;8.420;2023-03-01T07:30:18;101625.25;;;6.13
15709;BMP180;7954;51.914;8.420;2023-03-01T07:32:48;101626.47;;;6.19
15709;BMP180;7954;51.914;8.420;2023-03-01T07:35:18;101631.13;;;6.30
15709;BMP180;7954;51.914;8.420;2023-03-01T07:37:46;101628.28;;;6.36
15709;BMP180;7954;51.914;8.420;2023-03-01T07:40:14;101617.88;;;6.42
15709;BMP180;7954;51.914;8.420;2023-03-01T07:42:42;101612.19;;;6.47
15709;BMP180;7954;51.914;8.420;2023-03-01T07:45:10;101613.06;;;6.60
15709;BMP180;7954;51.914;8.420;2023-03-01T07:47:39;101607.34;;;6.69
15709;BMP180;7954;51.914;8.420;2023-03-01T07:50:10;101606.97;;;6.79
15709;BMP180;7954;51.914;8.420;2023-03-01T07:52:41;101608.13;;;6.89
15709;BMP180;7954;51.914;8.420;2023-03-01T07:55:09;101600.81;;;6.99
15709;BMP180;7954;51.914;8.420;2023-03-01T07:57:36;101603.88;;;7.09
15709;BMP180;7954;51.914;8.420;2023-03-01T08:00:05;101609.47;;;7.16
15709;BMP180;7954;51.914;8.420;2023-03-01T08:02:33;101613.38;;;7.32
15709;BMP180;7954;51.914;8.420;2023-03-01T08:05:02;101617.97;;;7.42
15709;BMP180;7954;51.914;8.420;2023-03-01T08:07:32;101607.81;;;7.54
15709;BMP180;7954;51.914;8.420;2023-03-01T08:10:00;101611.41;;;7.68
15709;BMP180;7954;51.914;8.420;2023-03-01T08:12:29;101611.22;;;7.84
15709;BMP180;7954;51.914;8.420;2023-03-01T08:14:57;101607.09;;;7.88
15709;BMP180;7954;51.914;8.420;2023-03-01T08:17:25;101609.78;;;7.98
15709;BMP180;7954;51.914;8.420;2023-03-01T08:19:53;101602.44;;;8.07
15709;BMP180;7954;51.914;8.420;2023-03-01T08:22:22;101598.16;;;8.24
15709;BMP180;7954;51.914;8.420;2023-03-01T08:24:52;101599.28;;;8.33
15709;BMP180;7954;51.914;8.420;2023-03-01T08:27:23;101586.59;;;8.41
15709;BMP180;7954;51.914;8.420;2023-03-01T08:29:51;101597.69;;;8.55
15709;BMP180;7954;51.914;8.420;2023-03-01T08:32:20;101596.84;;;8.68
15709;BMP180;7954;51.914;8.420;2023-03-01T08:34:48;101590.13;;;8.77
15709;BMP180;7954;51.914;8.420;2023-03-01T08:37:16;101585.88;;;8.85
15709;BMP180;7954;51.914;8.420;2023-03-01T08:39:44;101586.69;;;8.94
15709;BMP180;7954;51.914;8.420;2023-03-01T08:42:14;101586.75;;;9.07
15709;BMP180;7954;51.914;8.420;2023-03-01T08:44:41;101578.97;;;9.19
15709;BMP180;7954;51.914;8.420;2023-03-01T08:47:12;101577.47;;;9.33
15709;BMP180;7954;51.914;8.420;2023-03-01T08:49:40;101575.53;;;9.36
15709;BMP180;7954;51.914;8.420;2023-03-01T08:52:08;101570.88;;;9.47
15709;BMP180;7954;51.914;8.420;2023-03-01T08:54:37;101569.38;;;9.60
15709;BMP180;7954;51.914;8.420;2023-03-01T08:57:05;101561.91;;;9.70
15709;BMP180;7954;51.914;8.420;2023-03-01T08:59:35;101561.75;;;9.78
15709;BMP180;7954;51.914;8.420;2023-03-01T09:02:04;101569.06;;;9.90
15709;BMP180;7954;51.914;8.420;2023-03-01T09:04:33;101568.56;;;10.00
15709;BMP180;7954;51.914;8.420;2023-03-01T09:07:01;101569.66;;;10.06
15709;BMP180;7954;51.914;8.420;2023-03-01T09:09:29;101562.50;;;10.17
15709;BMP180;7954;51.914;8.420;2023-03-01T09:11:56;101564.84;;;10.25
15709;BMP180;7954;51.914;8.420;2023-03-01T09:14:25;101553.38;;;10.31
15709;BMP180;7954;51.914;8.420;2023-03-01T09:16:54;101558.41;;;10.31
15709;BMP180;7954;51.914;8.420;2023-03-01T09:19:23;101560.72;;;10.39
15709;BMP180;7954;51.914;8.420;2023-03-01T09:21:52;101549.25;;;10.45
15709;BMP180;7954;51.914;8.420;2023-03-01T09:24:23;101545.59;;;10.52
15709;BMP180;7954;51.914;8.420;2023-03-01T09:26:53;101539.13;;;10.58
15709;BMP180;7954;51.914;8.420;2023-03-01T09:29:21;101533.97;;;10.76
15709;BMP180;7954;51.914;8.420;2023-03-01T09:31:49;101531.97;;;10.79
15709;BMP180;7954;51.914;8.420;2023-03-01T09:34:19;101527.06;;;10.84
15709;BMP180;7954;51.914;8.420;2023-03-01T09:36:50;101521.09;;;10.84
15709;BMP180;7954;51.914;8.420;2023-03-01T09:39:18;101524.47;;;10.88
15709;BMP180;7954;51.914;8.420;2023-03-01T09:41:49;101515.38;;;10.98
15709;BMP180;7954;51.914;8.420;2023-03-01T09:44:30;101516.56;;;11.00
15709;BMP180;7954;51.914;8.420;2023-03-01T09:47:00;101516.75;;;11.05
15709;BMP180;7954;51.914;8.420;2023-03-01T09:49:32;101516.13;;;11.16
15709;BMP180;7954;51.914;8.420;2023-03-01T09:52:06;101509.47;;;11.16
15709;BMP180;7954;51.914;8.420;2023-03-01T09:54:38;101514.72;;;11.22
15709;BMP180;7954;51.914;8.420;2023-03-01T09:57:14;101513.66;;;11.25
15709;BMP180;7954;51.914;8.420;2023-03-01T10:00:01;101510.63;;;11.32
15709;BMP180;7954;51.914;8.420;2023-03-01T10:02:38;101512.66;;;11.38
15709;BMP180;7954;51.914;8.420;2023-03-01T10:05:19;101512.41;;;11.46
15709;BMP180;7954;51.914;8.420;2023-03-01T10:07:56;101511.84;;;11.56
15709;BMP180;7954;51.914;8.420;2023-03-01T10:10:32;101509.06;;;11.55
15709;BMP180;7954;51.914;8.420;2023-03-01T10:13:05;101505.63;;;11.64
15709;BMP180;7954;51.914;8.420;2023-03-01T10:15:42;101508.03;;;11.68
15709;BMP180;7954;51.914;8.420;2023-03-01T10:18:15;101508.84;;;11.72
15709;BMP180;7954;51.914;8.420;2023-03-01T10:20:52;101516.59;;;11.78
15709;BMP180;7954;51.914;8.420;2023-03-01T10:23:22;101503.00;;;11.87
15709;BMP180;7954;51.914;8.420;2023-03-01T10:26:01;101504.88;;;11.88
15709;BMP180;7954;51.914;8.420;2023-03-01T10:28:44;101504.38;;;11.85
15709;BMP180;7954;51.914;8.420;2023-03-01T10:31:18;101496.50;;;11.93
15709;BMP180;7954;51.914;8.420;2023-03-01T10:33:48;101499.16;;;11.98
15709;BMP180;7954;51.914;8.420;2023-03-01T10:36:23;101496.00;;;12.09
15709;BMP180;7954;51.914;8.420;2023-03-01T10:38:53;101485.75;;;12.13
15709;BMP180;7954;51.914;8.420;2023-03-01T10:41:24;101500.94;;;12.13
15709;BMP180;7954;51.914;8.420;2023-03-01T10:43:55;101494.16;;;12.17
15709;BMP180;7954;51.914;8.420;2023-03-01T10:46:25;101490.72;;;12.26
15709;BMP180;7954;51.914;8.420;2023-03-01T10:49:06;101491.09;;;12.33
15709;BMP180;7954;51.914;8.420;2023-03-01T10:51:35;101486.97;;;12.33
15709;BMP180;7954;51.914;8.420;2023-03-01T10:54:16;101477.22;;;12.40
15709;BMP180;7954;51.914;8.420;2023-03-01T10:56:49;101484.31;;;12.37
15709;BMP180;7954;51.914;8.420;2023-03-01T10:59:26;101483.91;;;12.40
15709;BMP180;7954;51.914;8.420;2023-03-01T11:02:07;101468.31;;;12.42
15709;BMP180;7954;51.914;8.420;2023-03-01T11:04:58;101471.91;;;12.48
15709;BMP180;7954;51.914;8.420;2023-03-01T11:07:28;101466.56;;;12.56
15709;BMP180;7954;51.914;8.420;2023-03-01T11:09:56;101464.16;;;12.71
15709;BMP180;7954;51.914;8.420;2023-03-01T11:12:24;101459.06;;;12.71
15709;BMP180;7954;51.914;8.420;2023-03-01T11:14:54;101461.59;;;12.71
15709;BMP180;7954;51.914;8.420;2023-03-01T11:17:25;101456.53;;;12.71
15709;BMP180;7954;51.914;8.420;2023-03-01T11:20:06;101451.06;;;12.74
15709;BMP180;7954;51.914;8.420;2023-03-01T11:22:45;101448.28;;;12.82
15709;BMP180;7954;51.914;8.420;2023-03-01T11:25:15;101448.78;;;12.84
15709;BMP180;7954;51.914;8.420;2023-03-01T11:27:46;101440.81;;;12.87
15709;BMP180;7954;51.914;8.420;2023-03-01T11:30:18;101453.44;;;13.06
15709;BMP180;7954;51.914;8.420;2023-03-01T11:32:54;101436.47;;;13.10
15709;BMP180;7954;51.914;8.420;2023-03-01T11:35:24;101434.19;;;13.12
15709;BMP180;7954;51.914;8.420;2023-03-01T11:38:02;101429.94;;;13.16
15709;BMP180;7954;51.914;8.420;2023-03-01T11:40:33;101432.81;;;13.23
15709;BMP180;7954;51.914;8.420;2023-03-01T11:43:09;101430.28;;;13.23
15709;BMP180;7954;51.914;8.420;2023-03-01T11:45:50;101430.25;;;13.33
15709;BMP180;7954;51.914;8.420;2023-03-01T11:48:33;101424.59;;;13.39
15709;BMP180;7954;51.914;8.420;2023-03-01T11:51:21;101434.66;;;13.34
15709;BMP180;7954;51.914;8.420;2023-03-01T11:54:05;101436.63;;;13.40
15709;BMP180;7954;51.914;8.420;2023-03-01T11:56:36;101429.84;;;13.35
15709;BMP180;7954;51.914;8.420;2023-03-01T11:59:43;101417.66;;;13.38
15709;BMP180;7954;51.914;8.420;2023-03-01T12:02:32;101427.28;;;13.45
15709;BMP180;7954;51.914;8.420;2023-03-01T12:05:20;101412.81;;;13.49
15709;BMP180;7954;51.914;8.420;2023-03-01T12:07:56;101409.69;;;13.55
15709;BMP180;7954;51.914;8.420;2023-03-01T12:10:34;101411.41;;;13.60
15709;BMP180;7954;51.914;8.420;2023-03-01T12:13:27;101409.72;;;13.70
15709;BMP180;7954;51.914;8.420;2023-03-01T12:16:11;101406.28;;;13.70
15709;BMP180;7954;51.914;8.420;2023-03-01T12:19:28;101388.69;;;13.81
15709;BMP180;7954;51.914;8.420;2023-03-01T12:22:13;101389.63;;;13.81
15709;BMP180;7954;51.914;8.420;2023-03-01T12:25:13;101381.69;;;13.89
15709;BMP180;7954;51.914;8.420;2023-03-01T12:28:19;101378.47;;;13.90
15709;BMP180;7954;51.914;8.420;2023-03-01T12:31:10;101370.84;;;13.90
15709;BMP180;7954;51.914;8.420;2023-03-01T12:33:45;101363.22;;;14.05
15709;BMP180;7954;51.914;8.420;2023-03-01T12:36:35;101360.84;;;14.11
15709;BMP180;7954;51.914;8.420;2023-03-01T12:39:15;101357.88;;;14.28
15709;BMP180;7954;51.914;8.420;2023-03-01T12:41:57;101348.13;;;14.40
15709;BMP180;7954;51.914;8.420;2023-03-01T12:44:42;101331.44;;;14.37
15709;BMP180;7954;51.914;8.420;2023-03-01T12:47:22;101340.22;;;14.54
15709;BMP180;7954;51.914;8.420;2023-03-01T12:49:57;101332.66;;;14.79
15709;BMP180;7954;51.914;8.420;2023-03-01T12:52:32;101326.59;;;15.14
15709;BMP180;7954;51.914;8.420;2023-03-01T12:55:02;101321.19;;;15.48
15709;BMP180;7954;51.914;8.420;2023-03-01T12:57:37;101314.16;;;15.93
15709;BMP180;7954;51.914;8.420;2023-03-01T13:00:22;101303.81;;;16.39
15709;BMP180;7954;51.914;8.420;2023-03-01T13:02:58;101293.13;;;16.95
15709;BMP180;7954;51.914;8.420;2023-03-01T13:05:39;101278.88;;;17.55
15709;BMP180;7954;51.914;8.420;2023-03-01T13:08:15;101266.72;;;18.14
15709;BMP180;7954;51.914;8.420;2023-03-01T13:10:50;101265.59;;;18.68
15709;BMP180;7954;51.914;8.420;2023-03-01T13:13:22;101268.25;;;19.32
15709;BMP180;7954;51.914;8.420;2023-03-01T13:15:52;101250.44;;;19.73
15709;BMP180;7954;51.914;8.420;2023-03-01T13:18:29;101242.47;;;20.23
15709;BMP180;7954;51.914;8.420;2023-03-01T13:20:58;101234.25;;;20.67
15709;BMP180;7954;51.914;8.420;2023-03-01T13:23:30;101249.34;;;21.07
15709;BMP180;7954;51.914;8.420;2023-03-01T13:26:02;101229.66;;;21.37
15709;BMP180;7954;51.914;8.420;2023-03-01T13:28:39;101219.69;;;21.76
15709;BMP180;7954;51.914;8.420;2023-03-01T13:34:44;101215.91;;;22.80
15709;BMP180;7954;51.914;8.420;2023-03-01T13:37:29;101211.25;;;23.29
15709;BMP180;7954;51.914;8.420;2023-03-01T13:40:00;101212.41;;;23.64
15709;BMP180;7954;51.914;8.420;2023-03-01T13:42:37;101210.78;;;23.91
15709;BMP180;7954;51.914;8.420;2023-03-01T13:45:16;101215.06;;;24.31
15709;BMP180;7954;51.914;8.420;2023-03-01T13:47:50;101202.09;;;24.64
15709;BMP180;7954;51.914;8.420;2023-03-01T13:50:23;101198.09;;;25.01
15709;BMP180;7954;51.914;8.420;2023-03-01T13:52:54;101204.28;;;25.43
15709;BMP180;7954;51.914;8.420;2023-03-01T13:55:27;101187.75;;;25.91
15709;BMP180;7954;51.914;8.420;2023-03-01T13:57:57;101181.19;;;26.22
15709;BMP180;7954;51.914;8.420;2023-03-01T14:00:35;101184.44;;;26.42
15709;BMP180;7954;51.914;8.420;2023-03-01T14:03:14;101176.97;;;26.81
15709;BMP180;7954;51.914;8.420;2023-03-01T14:05:53;101176.41;;;27.13
15709;BMP180;7954;51.914;8.420;2023-03-01T14:08:39;101181.97;;;27.54
15709;BMP180;7954;51.914;8.420;2023-03-01T14:11:31;101179.34;;;27.92
15709;BMP180;7954;51.914;8.420;2023-03-01T14:14:14;101159.00;;;28.49
15709;BMP180;7954;51.914;8.420;2023-03-01T14:16:51;101161.72;;;28.90
15709;BMP180;7954;51.914;8.420;2023-03-01T14:19:24;101162.22;;;29.26
15709;BMP180;7954;51.914;8.420;2023-03-01T14:22:05;101152.53;;;29.49
15709;BMP180;7954;51.914;8.420;2023-03-01T14:24:40;101158.75;;;29.75
15709;BMP180;7954;51.914;8.420;2023-03-01T14:27:12;101148.88;;;30.05
15709;BMP180;7954;51.914;8.420;2023-03-01T14:29:41;101149.50;;;30.28
15709;BMP180;7954;51.914;8.420;2023-03-01T14:32:11;101148.28;;;30.50
15709;BMP180;7954;51.914;8.420;2023-03-01T14:34:45;101139.69;;;30.67
15709;BMP180;7954;51.914;8.420;2023-03-01T14:37:20;101138.09;;;30.95
15709;BMP180;7954;51.914;8.420;2023-03-01T14:39:50;101132.19;;;31.14
15709;BMP180;7954;51.914;8.420;2023-03-01T14:42:19;101129.81;;;31.34
15709;BMP180;7954;51.914;8.420;2023-03-01T14:44:50;101120.53;;;31.46
15709;BMP180;7954;51.914;8.420;2023-03-01T14:47:26;101116.88;;;31.71
15709;BMP180;7954;51.914;8.420;2023-03-01T14:49:59;101116.84;;;31.97